Omega, Oklahoma
Current Conditions -  °F | °C
As of 8:55 PM on Friday 21 Nov 2014 (Local Time) from KJWG Reporting Station
Haze Haze  
Wind Chill:   Ceiling: 3900
Heat Index:   Visibility: 4mi
Dew Point:   Wind: 3mph
Humidity: 100%   Direction: 100°E
Pressure: 30.06"   Gusts: NA
Location:  35.87°N, 98.2°W
Report Text: KJWG 220255Z AUTO 10003KT 4SM BR SCT023 SCT028 BKN039 04/04 A3006 RMK AO2 T00420042
Loading
Personal Weather Stations






























Interactive Weather Map New forecast layout! Learn more

10-Day Weather Forecast

Advertisements
Track Severe Weather on mobile